Time;durP1;ratioP1;P1;durP2;ratioP2;P2;SDS_P1;SDS_P2;PMS_P1;PMS_P2;Temp;Humidity;BMP_temperature;BMP_pressure;BME280_temperature;BME280_humidity;BME280_pressure;Samples;Min_cycle;Max_cycle;Signal;HPM_P1;HPM_P2
2021/03/30 00:00:19;;;;;;;41.21;28.56;;;;;;;7.38;61.17;100765.15;336923;112;2220018;-73
2021/03/30 00:01:25;;;;;;;42.69;29.11;;;;;;;7.37;61.20;100766.16;351530;112;1962968;-74
2021/03/30 00:02:30;;;;;;;44.84;28.32;;;;;;;7.37;61.25;100774.23;350998;113;1961904;-74
2021/03/30 00:03:37;;;;;;;46.13;28.03;;;;;;;7.36;61.22;100769.87;353169;112;1961962;-73
2021/03/30 00:04:42;;;;;;;44.54;28.58;;;;;;;7.37;61.26;100768.85;319386;114;2618043;-73
2021/03/30 00:05:49;;;;;;;45.91;29.90;;;;;;;7.38;61.21;100774.08;353400;112;1962006;-74
2021/03/30 00:06:55;;;;;;;42.21;29.46;;;;;;;7.37;61.20;100760.79;352169;112;1961906;-73
2021/03/30 00:08:01;;;;;;;41.87;28.62;;;;;;;7.37;61.19;100769.69;351993;112;1962999;-74
2021/03/30 00:09:09;;;;;;;45.02;30.76;;;;;;;7.36;61.18;100768.02;312567;112;2717965;-74
2021/03/30 00:10:19;;;;;;;45.06;29.26;;;;;;;7.34;61.19;100763.80;336290;112;2260042;-74
2021/03/30 00:11:26;;;;;;;48.34;29.84;;;;;;;7.33;61.27;100767.47;352387;112;1961992;-74
2021/03/30 00:12:31;;;;;;;47.13;28.95;;;;;;;7.32;61.33;100757.73;316318;110;2096497;-73
2021/03/30 00:13:37;;;;;;;44.33;28.70;;;;;;;7.31;61.35;100764.12;346889;111;1961960;-74
2021/03/30 00:14:44;;;;;;;44.61;30.38;;;;;;;7.30;61.42;100759.72;359118;111;1962015;-73
2021/03/30 00:15:50;;;;;;;42.46;27.56;;;;;;;7.30;61.43;100763.25;309123;111;2166810;-73
2021/03/30 00:16:55;;;;;;;44.57;29.07;;;;;;;7.29;61.50;100756.20;340159;110;1962961;-73
2021/03/30 00:18:00;;;;;;;42.97;26.86;;;;;;;7.30;61.46;100768.63;357463;110;1961927;-74
2021/03/30 00:19:06;;;;;;;45.93;28.36;;;;;;;7.31;61.37;100764.12;359322;110;1963014;-73
2021/03/30 00:20:15;;;;;;;41.59;28.26;;;;;;;7.30;61.36;100760.56;359972;112;1962010;-73
2021/03/30 00:21:20;;;;;;;43.61;28.36;;;;;;;7.30;61.30;100763.25;359967;111;1963002;-72
2021/03/30 00:22:25;;;;;;;42.84;27.41;;;;;;;7.30;61.35;100760.56;359079;111;1961933;-73
2021/03/30 00:23:31;;;;;;;39.03;27.52;;;;;;;7.31;61.31;100761.43;359681;110;1963954;-73
2021/03/30 00:24:37;;;;;;;38.97;26.22;;;;;;;7.29;61.19;100764.27;359684;110;1961989;-73
2021/03/30 00:25:43;;;;;;;39.00;25.62;;;;;;;7.29;61.14;100761.58;319307;110;2728081;-73
2021/03/30 00:26:49;;;;;;;40.18;26.83;;;;;;;7.28;61.15;100770.65;358860;110;1961911;-73
2021/03/30 00:27:55;;;;;;;43.84;29.15;;;;;;;7.27;61.19;100769.78;357769;110;1964941;-73
2021/03/30 00:29:03;;;;;;;44.26;28.04;;;;;;;7.27;61.24;100764.41;359646;110;1961999;-72
2021/03/30 00:30:11;;;;;;;38.76;26.98;;;;;;;7.28;61.24;100765.27;359826;112;1962934;-73
2021/03/30 00:31:16;;;;;;;40.94;28.88;;;;;;;7.29;61.26;100766.11;325090;111;2220001;-73
2021/03/30 00:32:22;;;;;;;45.28;27.22;;;;;;;7.28;61.33;100770.65;357776;110;1962005;-73
2021/03/30 00:33:27;;;;;;;43.13;28.21;;;;;;;7.27;61.35;100764.41;360263;112;1961951;-73
2021/03/30 00:34:33;;;;;;;42.13;29.34;;;;;;;7.26;61.37;100765.42;358193;110;1962074;-73
2021/03/30 00:35:38;;;;;;;42.45;27.04;;;;;;;7.26;61.38;100768.11;357233;110;1961968;-73
2021/03/30 00:36:44;;;;;;;42.14;27.83;;;;;;;7.25;61.39;100763.74;360954;110;1961963;-73
2021/03/30 00:37:50;;;;;;;42.92;28.52;;;;;;;7.24;61.41;100769.27;325782;110;2611918;-72
2021/03/30 00:38:55;;;;;;;44.61;29.97;;;;;;;7.23;61.45;100763.05;335560;110;1962945;-72
2021/03/30 00:40:01;;;;;;;42.69;28.27;;;;;;;7.23;61.40;100775.66;359550;110;1961986;-74
2021/03/30 00:41:06;;;;;;;42.97;27.09;;;;;;;7.23;61.41;100771.11;359581;112;1961991;-72
2021/03/30 00:42:24;;;;;;;41.11;27.23;;;;;;;7.22;61.42;100774.81;355895;113;1961956;-73
2021/03/30 00:43:30;;;;;;;40.86;28.54;;;;;;;7.22;61.38;100771.26;359501;110;1962991;-73
2021/03/30 00:44:35;;;;;;;51.58;28.25;;;;;;;7.21;61.47;100774.95;360549;110;1962958;-74
2021/03/30 00:45:42;;;;;;;44.93;29.39;;;;;;;7.20;61.48;100771.43;359373;110;1961955;-74
2021/03/30 00:46:49;;;;;;;44.13;28.65;;;;;;;7.20;61.46;100771.43;302987;110;2226696;-74
2021/03/30 00:47:55;;;;;;;45.38;27.63;;;;;;;7.21;61.38;100766.89;359407;110;1962849;-75
2021/03/30 00:49:01;;;;;;;44.39;27.74;;;;;;;7.20;61.40;100760.69;361134;110;1961911;-73
2021/03/30 00:50:10;;;;;;;47.04;28.26;;;;;;;7.20;61.43;100763.38;307568;110;2194809;-73
2021/03/30 00:51:18;;;;;;;40.26;27.04;;;;;;;7.22;61.43;100765.88;351480;110;2901944;-73
2021/03/30 00:52:28;;;;;;;44.27;28.47;;;;;;;7.21;61.39;100764.20;344128;116;1965442;-73
2021/03/30 00:53:48;;;;;;;43.26;27.85;;;;;;;7.21;61.32;100769.58;343631;115;1963089;-73
2021/03/30 00:54:58;;;;;;;42.68;28.59;;;;;;;7.18;61.45;100765.36;351623;112;1962020;-72
2021/03/30 00:56:04;;;;;;;43.14;28.29;;;;;;;7.19;61.45;100763.52;359203;110;1961978;-73
2021/03/30 00:57:10;;;;;;;41.92;27.82;;;;;;;7.18;61.53;100767.22;359018;110;1964926;-73
2021/03/30 00:58:15;;;;;;;43.38;26.46;;;;;;;7.18;61.51;100776.11;308989;111;2226013;-73
2021/03/30 00:59:22;;;;;;;41.22;26.22;;;;;;;7.18;61.31;100775.27;338243;112;1964021;-74
2021/03/30 01:00:29;;;;;;;40.29;24.95;;;;;;;7.20;61.28;100765.22;313849;111;2789970;-73
2021/03/30 01:01:35;;;;;;;38.17;25.04;;;;;;;7.19;61.22;100766.20;334274;110;1962991;-74
2021/03/30 01:02:40;;;;;;;34.71;24.23;;;;;;;7.19;61.20;100763.52;360343;110;1962013;-73
2021/03/30 01:03:46;;;;;;;40.73;25.49;;;;;;;7.19;61.12;100761.66;359961;111;1961943;-73
2021/03/30 01:04:51;;;;;;;39.87;23.99;;;;;;;7.20;61.03;100771.43;358141;111;1961892;-73
2021/03/30 01:05:56;;;;;;;37.42;24.46;;;;;;;7.21;60.99;100769.58;360524;110;1962014;-74
2021/03/30 01:07:04;;;;;;;37.32;23.72;;;;;;;7.21;60.87;100765.05;345675;113;2891977;-73
2021/03/30 01:08:22;;;;;;;35.98;23.40;;;;;;;7.22;60.85;100771.26;353585;111;1961965;-74
2021/03/30 01:09:37;;;;;;;36.75;23.86;;;;;;;7.21;60.78;100767.73;319594;121;2220032;-74
2021/03/30 01:11:08;;;;;;;33.18;22.96;;;;;;;7.22;60.65;100773.94;357029;111;1961876;-74
2021/03/30 01:12:19;;;;;;;35.12;21.88;;;;;;;7.22;60.62;100776.63;358623;111;1963006;-74
2021/03/30 01:13:32;;;;;;;34.38;22.11;;;;;;;7.21;60.53;100770.42;358330;110;1963024;-73
2021/03/30 01:15:01;;;;;;;37.93;22.71;;;;;;;7.21;60.45;100777.64;359921;110;1961988;-73
2021/03/30 01:16:14;;;;;;;35.24;22.24;;;;;;;7.21;60.45;100772.27;314740;111;2114285;-73
2021/03/30 01:17:29;;;;;;;33.84;22.34;;;;;;;7.20;60.50;100779.49;358236;110;1963022;-74
2021/03/30 01:18:48;;;;;;;34.66;21.88;;;;;;;7.19;60.40;100776.95;314819;110;2793922;-73
2021/03/30 01:20:10;;;;;;;38.52;22.98;;;;;;;7.20;60.37;100771.43;359417;110;1965011;-73
2021/03/30 01:21:31;;;;;;;39.13;23.63;;;;;;;7.18;60.33;100773.42;340062;110;1961930;-73
2021/03/30 01:22:58;;;;;;;38.13;24.13;;;;;;;7.18;60.34;100773.42;348171;115;1961986;-73
2021/03/30 01:24:28;;;;;;;40.02;24.53;;;;;;;7.18;60.29;100769.90;326858;110;2225924;-74
2021/03/30 01:25:37;;;;;;;41.14;25.11;;;;;;;7.17;60.33;100770.88;340637;110;2270014;-73
2021/03/30 01:26:57;;;;;;;41.44;25.19;;;;;;;7.16;60.30;100769.20;349776;110;1961973;-74
2021/03/30 01:28:22;;;;;;;42.26;27.22;;;;;;;7.15;60.28;100767.53;319428;110;2708990;-74
2021/03/30 01:29:47;;;;;;;44.93;27.81;;;;;;;7.14;60.35;100772.03;309019;110;2229902;-73
2021/03/30 01:30:55;;;;;;;42.52;26.62;;;;;;;7.14;60.37;100769.35;336567;110;2376947;-73
2021/03/30 01:32:01;;;;;;;42.34;27.10;;;;;;;7.12;60.40;100770.50;358776;110;1961951;-73
2021/03/30 01:33:11;;;;;;;46.09;27.86;;;;;;;7.11;60.51;100772.36;328420;110;1963050;-73
2021/03/30 01:34:20;;;;;;;45.28;27.17;;;;;;;7.11;60.49;100775.05;334027;110;2408932;-73
2021/03/30 01:35:28;;;;;;;42.28;27.06;;;;;;;7.11;60.47;100779.58;332322;110;2439015;-73
2021/03/30 01:36:38;;;;;;;48.57;29.18;;;;;;;7.11;60.55;100774.20;359165;110;1961993;-73
2021/03/30 01:37:46;;;;;;;42.99;28.94;;;;;;;7.10;60.57;100788.65;359631;110;1960933;-73
2021/03/30 01:38:52;;;;;;;43.23;28.23;;;;;;;7.09;60.60;100777.03;359270;110;1961931;-73
2021/03/30 01:40:00;;;;;;;44.92;28.27;;;;;;;7.08;60.65;100775.36;358997;110;1962949;-73
2021/03/30 01:41:05;;;;;;;44.36;28.44;;;;;;;7.08;60.63;100780.73;343573;111;1961912;-73
2021/03/30 01:42:12;;;;;;;45.56;29.72;;;;;;;7.08;60.72;100779.89;361017;110;1961959;-73
2021/03/30 01:43:20;;;;;;;47.67;29.08;;;;;;;7.06;60.63;100774.66;358027;110;1961932;-73
2021/03/30 01:44:26;;;;;;;48.22;30.41;;;;;;;7.06;60.78;100777.34;360004;110;1961975;-73
2021/03/30 01:45:32;;;;;;;48.58;28.61;;;;;;;7.04;60.82;100777.52;360397;112;1962010;-73
2021/03/30 01:46:42;;;;;;;41.07;27.83;;;;;;;7.03;60.87;100783.88;354978;111;1961989;-73
2021/03/30 01:47:48;;;;;;;44.29;28.67;;;;;;;7.03;60.90;100781.19;359887;110;1961905;-73
2021/03/30 01:48:54;;;;;;;45.40;27.56;;;;;;;7.04;60.92;100784.75;338456;110;1961795;-73
2021/03/30 01:50:05;;;;;;;42.49;27.50;;;;;;;7.06;60.78;100782.72;317843;110;2903035;-73
2021/03/30 01:51:13;;;;;;;46.64;27.55;;;;;;;7.06;60.72;100785.41;356737;110;1962919;-73
2021/03/30 01:52:22;;;;;;;41.98;25.98;;;;;;;7.07;60.75;100794.34;361196;110;1961949;-74
2021/03/30 01:53:28;;;;;;;42.65;26.57;;;;;;;7.08;60.76;100790.64;347171;111;1964939;-73
2021/03/30 01:54:35;;;;;;;42.59;27.70;;;;;;;7.08;60.70;100780.73;359739;110;1964036;-73
2021/03/30 01:55:41;;;;;;;43.34;28.16;;;;;;;7.10;60.69;100784.11;359527;110;1962980;-73
2021/03/30 01:56:49;;;;;;;40.36;26.98;;;;;;;7.12;60.77;100790.18;327666;110;1961963;-73
2021/03/30 01:57:58;;;;;;;45.74;27.73;;;;;;;7.13;60.74;100788.34;359692;111;1962024;-73
2021/03/30 01:59:08;;;;;;;45.59;29.49;;;;;;;7.15;60.71;100786.34;358748;111;1962023;-72
2021/03/30 02:00:17;;;;;;;48.22;30.33;;;;;;;7.16;60.79;100788.02;358718;110;1961936;-72
2021/03/30 02:01:23;;;;;;;45.46;29.56;;;;;;;7.16;60.88;100788.86;359238;110;1964045;-72
2021/03/30 02:02:29;;;;;;;44.63;29.19;;;;;;;7.16;60.93;100782.64;359277;110;1962039;-72
2021/03/30 02:03:35;;;;;;;45.61;29.33;;;;;;;7.16;60.94;100785.33;318950;110;2714014;-72
2021/03/30 02:04:41;;;;;;;43.16;27.86;;;;;;;7.15;60.89;100787.17;359710;110;1964009;-72
2021/03/30 02:05:47;;;;;;;41.38;27.52;;;;;;;7.13;60.94;100789.17;359706;110;1962068;-73
2021/03/30 02:06:53;;;;;;;47.73;30.43;;;;;;;7.12;60.92;100792.00;358805;110;1961992;-71
2021/03/30 02:08:01;;;;;;;47.19;28.60;;;;;;;7.12;61.14;100787.50;337381;110;1960661;-73
2021/03/30 02:09:13;;;;;;;47.05;30.08;;;;;;;7.13;61.24;100778.42;358827;110;1961971;-72
2021/03/30 02:10:29;;;;;;;49.41;30.45;;;;;;;7.12;61.29;100784.81;363482;110;1964006;-72
2021/03/30 02:11:30;;;;;;;48.29;29.41;;;;;;;7.13;61.33;100785.64;358751;110;1961951;-72
2021/03/30 02:12:40;;;;;;;43.73;29.76;;;;;;;7.14;61.37;100790.84;335547;110;1962016;-71
2021/03/30 02:13:42;;;;;;;46.19;30.14;;;;;;;7.16;61.43;100785.33;333457;113;2333942;-72
2021/03/30 02:14:48;;;;;;;47.89;29.88;;;;;;;7.16;61.42;100785.33;354065;113;1963906;-72
2021/03/30 02:16:15;;;;;;;46.69;28.71;;;;;;;7.15;61.42;100783.66;351108;113;1965000;-73
2021/03/30 02:17:39;;;;;;;42.42;28.57;;;;;;;7.16;61.36;100788.86;326491;113;2952939;-73
2021/03/30 02:18:56;;;;;;;44.55;28.88;;;;;;;7.18;61.27;100783.34;341409;114;1961927;-72
2021/03/30 02:20:14;;;;;;;44.07;29.08;;;;;;;7.00;61.19;100753.80;332784;112;1962920;-72
2021/03/30 02:21:23;;;;;;;42.87;28.74;;;;;;;7.16;61.20;100783.48;349094;113;1961979;-72
2021/03/30 02:22:38;;;;;;;47.41;30.66;;;;;;;7.17;61.33;100778.94;353494;113;1963033;-72
2021/03/30 02:23:48;;;;;;;50.92;31.37;;;;;;;7.17;61.33;100782.50;327954;113;1962934;-72
2021/03/30 02:24:55;;;;;;;45.62;30.33;;;;;;;7.16;61.39;100780.80;352643;113;1962036;-72
2021/03/30 02:26:02;;;;;;;47.39;29.61;;;;;;;7.16;61.37;100780.80;352367;112;1962999;-72
2021/03/30 02:27:10;;;;;;;45.56;29.29;;;;;;;7.15;61.37;100781.80;352502;113;1964602;-72
2021/03/30 02:28:18;;;;;;;46.21;29.43;;;;;;;7.14;61.37;100779.26;353610;113;1961903;-72
2021/03/30 02:29:28;;;;;;;47.09;29.77;;;;;;;7.13;61.43;100780.27;348085;113;1962027;-72
2021/03/30 02:30:36;;;;;;;46.96;28.76;;;;;;;7.14;61.43;100779.26;317374;113;2026335;-72
2021/03/30 02:31:43;;;;;;;45.52;28.66;;;;;;;7.14;61.46;100774.72;354324;113;1962005;-72
2021/03/30 02:32:49;;;;;;;45.75;29.48;;;;;;;7.15;61.37;100786.34;331219;113;1961976;-73
2021/03/30 02:33:57;;;;;;;46.28;28.82;;;;;;;7.14;61.45;100780.09;351664;113;1961963;-73
2021/03/30 02:35:05;;;;;;;41.08;29.71;;;;;;;7.15;61.37;100787.17;314979;113;2028103;-72
2021/03/30 02:36:12;;;;;;;43.04;28.17;;;;;;;7.15;61.37;100784.49;319891;113;2922946;-72
2021/03/30 02:37:19;;;;;;;43.67;28.86;;;;;;;7.15;61.35;100786.34;352869;113;1961932;-72
2021/03/30 02:38:27;;;;;;;41.69;28.64;;;;;;;7.15;61.37;100780.97;352948;113;1961953;-72
2021/03/30 02:39:33;;;;;;;42.52;27.62;;;;;;;7.16;61.41;100786.16;352916;113;1961991;-72
2021/03/30 02:40:40;;;;;;;42.91;28.48;;;;;;;7.16;61.36;100783.48;354928;113;1962001;-73
2021/03/30 02:41:48;;;;;;;44.62;27.85;;;;;;;7.18;61.30;100784.17;317542;113;2233980;-72
2021/03/30 02:42:56;;;;;;;41.15;27.19;;;;;;;7.19;61.29;100785.02;354426;113;1962024;-73
2021/03/30 02:44:06;;;;;;;43.17;28.37;;;;;;;7.19;61.23;100785.84;354006;113;1961986;-72
2021/03/30 02:45:15;;;;;;;42.75;29.53;;;;;;;7.20;61.19;100784.87;349288;113;1962060;-72
2021/03/30 02:46:24;;;;;;;46.20;29.36;;;;;;;7.21;61.15;100783.86;351870;115;1962974;-72
2021/03/30 02:47:30;;;;;;;43.21;27.29;;;;;;;7.23;61.09;100781.86;332405;113;1962009;-73
2021/03/30 02:48:37;;;;;;;42.42;27.24;;;;;;;7.25;60.91;100784.38;354236;112;1962002;-72
2021/03/30 02:49:45;;;;;;;35.17;23.57;;;;;;;7.23;59.83;100781.03;312452;113;2736026;-72
2021/03/30 02:50:51;;;;;;;40.81;24.48;;;;;;;7.21;59.18;100785.70;354348;113;1961970;-73
2021/03/30 02:51:58;;;;;;;35.88;24.13;;;;;;;7.23;59.31;100783.71;352816;112;1963980;-72
2021/03/30 02:53:04;;;;;;;41.19;24.93;;;;;;;7.23;58.95;100786.40;353229;113;1961971;-72
2021/03/30 02:54:09;;;;;;;36.00;20.94;;;;;;;7.24;58.59;100790.77;352367;112;1962046;-72
2021/03/30 02:55:16;;;;;;;31.71;21.19;;;;;;;7.24;58.29;100786.22;352960;113;1962021;-72
2021/03/30 02:56:23;;;;;;;29.81;19.53;;;;;;;7.26;58.49;100783.39;343321;113;1962017;-73
2021/03/30 02:57:29;;;;;;;33.79;21.02;;;;;;;7.29;58.10;100787.61;351564;113;1961993;-73
2021/03/30 02:58:37;;;;;;;37.76;24.20;;;;;;;7.29;57.71;100785.77;352374;112;1961942;-73
2021/03/30 02:59:45;;;;;;;42.68;26.67;;;;;;;7.31;57.92;100789.14;351831;113;1961994;-72
2021/03/30 03:00:53;;;;;;;45.58;28.46;;;;;;;7.32;58.41;100788.12;315842;113;2670798;-71
2021/03/30 03:02:00;;;;;;;52.71;32.77;;;;;;;7.32;58.87;100788.12;351036;112;1962026;-72
2021/03/30 03:03:11;;;;;;;46.53;30.38;;;;;;;7.32;59.16;100789.98;332299;112;2375925;-72
2021/03/30 03:04:17;;;;;;;51.60;31.79;;;;;;;7.31;59.36;100786.45;351463;113;1962029;-72
2021/03/30 03:05:23;;;;;;;51.86;32.91;;;;;;;7.32;59.46;100785.45;353319;113;1971010;-73
2021/03/30 03:06:31;;;;;;;55.21;31.09;;;;;;;7.32;59.64;100788.12;332624;112;2327029;-72
2021/03/30 03:07:38;;;;;;;49.34;33.37;;;;;;;7.32;59.80;100787.30;353767;113;1963988;-72
2021/03/30 03:08:46;;;;;;;57.09;33.91;;;;;;;7.31;59.82;100793.68;312328;113;2722065;-72
2021/03/30 03:09:54;;;;;;;49.75;32.95;;;;;;;7.29;59.82;100783.08;353734;113;1962017;-72
2021/03/30 03:11:00;;;;;;;50.68;32.58;;;;;;;7.29;59.80;100783.08;351187;113;1961038;-71
2021/03/30 03:12:08;;;;;;;48.17;32.68;;;;;;;7.30;59.80;100787.44;348941;113;1961937;-72
2021/03/30 03:13:15;;;;;;;47.73;28.21;;;;;;;7.30;59.84;100786.60;323699;112;1961991;-72
2021/03/30 03:14:20;;;;;;;48.21;27.59;;;;;;;7.30;59.60;100787.44;359195;111;1961986;-72
2021/03/30 03:15:27;;;;;;;41.82;26.32;;;;;;;7.29;59.32;100795.67;359161;111;1962877;-72
2021/03/30 03:16:34;;;;;;;47.14;27.97;;;;;;;7.28;59.26;100792.15;358311;111;1962034;-71
2021/03/30 03:17:42;;;;;;;43.93;28.60;;;;;;;7.27;59.02;100793.13;356763;111;1962980;-71
2021/03/30 03:18:48;;;;;;;35.13;24.13;;;;;;;7.26;58.95;100788.77;339164;111;1962985;-72
2021/03/30 03:19:56;;;;;;;41.82;25.30;;;;;;;7.24;58.24;100791.60;359186;111;1962458;-73
2021/03/30 03:21:03;;;;;;;41.06;23.53;;;;;;;7.25;58.37;100787.93;335899;115;1962971;-72
2021/03/30 03:22:09;;;;;;;39.22;25.14;;;;;;;7.27;58.31;100790.44;359397;111;1961923;-73
2021/03/30 03:23:16;;;;;;;39.04;24.04;;;;;;;7.28;58.33;100786.77;358830;111;1961993;-72
2021/03/30 03:24:22;;;;;;;41.12;24.28;;;;;;;7.29;58.09;100787.61;328822;111;1962104;-72
2021/03/30 03:25:27;;;;;;;33.21;22.53;;;;;;;7.30;57.89;100786.60;358199;111;1961968;-72
2021/03/30 03:26:33;;;;;;;36.34;22.08;;;;;;;7.30;57.71;100795.50;357151;111;1962041;-72
2021/03/30 03:27:40;;;;;;;32.97;21.03;;;;;;;7.29;57.56;100788.45;309118;111;2877009;-72
2021/03/30 03:28:46;;;;;;;32.81;19.97;;;;;;;7.30;56.62;100789.28;357766;111;1961977;-72
2021/03/30 03:29:51;;;;;;;30.12;20.23;;;;;;;7.29;56.99;100785.77;357709;111;1961985;-72
2021/03/30 03:30:57;;;;;;;31.97;17.01;;;;;;;7.29;56.71;100785.77;358495;111;1962002;-73
2021/03/30 03:32:03;;;;;;;28.22;16.98;;;;;;;7.30;55.85;100794.66;358441;111;1961921;-72
2021/03/30 03:33:11;;;;;;;32.48;17.38;;;;;;;7.29;55.32;100790.30;313886;113;2233979;-72
2021/03/30 03:34:19;;;;;;;29.71;18.11;;;;;;;7.29;55.72;100788.45;340026;111;2293996;-73
2021/03/30 03:35:24;;;;;;;30.88;17.26;;;;;;;7.30;55.37;100790.13;357805;111;1961918;-73
2021/03/30 03:36:41;;;;;;;30.72;17.27;;;;;;;7.32;55.11;100798.88;358128;111;1962016;-73
2021/03/30 03:37:48;;;;;;;25.87;15.74;;;;;;;7.32;55.05;100798.88;325260;111;2596030;-72
2021/03/30 03:38:53;;;;;;;25.50;15.38;;;;;;;7.34;54.70;100796.05;355286;111;1964006;-72
2021/03/30 03:39:58;;;;;;;26.85;15.11;;;;;;;7.34;54.59;100791.52;358048;111;1961971;-72
2021/03/30 03:41:06;;;;;;;27.22;16.09;;;;;;;7.37;54.14;100798.42;357312;111;1963006;-74
2021/03/30 03:42:11;;;;;;;24.05;14.69;;;;;;;7.38;54.09;100797.41;337094;111;2343013;-73
2021/03/30 03:43:16;;;;;;;26.29;15.22;;;;;;;7.37;54.24;100796.56;332961;111;1962888;-73
2021/03/30 03:44:24;;;;;;;22.86;14.35;;;;;;;7.37;53.99;100796.56;355792;111;1962079;-73
2021/03/30 03:45:29;;;;;;;24.18;15.03;;;;;;;7.40;53.41;100792.72;356528;111;1963936;-73
2021/03/30 03:46:36;;;;;;;26.11;14.70;;;;;;;6.78;53.46;100694.22;329166;111;1964919;-72
2021/03/30 03:47:42;;;;;;;25.23;15.37;;;;;;;7.40;53.39;100784.66;358096;111;1964014;-72
2021/03/30 03:48:47;;;;;;;23.73;15.09;;;;;;;7.40;53.36;100796.25;360645;111;1961879;-72
2021/03/30 03:49:54;;;;;;;25.95;15.38;;;;;;;7.40;53.23;100796.25;316472;111;2780973;-72
2021/03/30 03:51:03;;;;;;;22.26;15.21;;;;;;;7.40;53.04;100792.72;338871;111;1962036;-72
2021/03/30 03:52:12;;;;;;;24.93;14.97;;;;;;;7.41;53.07;100794.40;353825;113;1961962;-73
2021/03/30 03:53:19;;;;;;;23.90;15.17;;;;;;;7.42;52.91;100804.17;354040;112;1961955;-73
2021/03/30 03:54:25;;;;;;;25.43;15.19;;;;;;;7.43;52.97;100790.55;343503;111;1963993;-73
2021/03/30 03:55:31;;;;;;;26.75;15.55;;;;;;;7.44;52.82;100796.80;357234;111;1961979;-72
2021/03/30 03:56:47;;;;;;;27.65;14.99;;;;;;;7.46;52.68;100800.15;322393;111;2623061;-72
2021/03/30 03:57:56;;;;;;;24.24;14.89;;;;;;;7.45;52.43;100804.69;335503;111;2364077;-72
2021/03/30 03:59:06;;;;;;;26.28;14.97;;;;;;;7.45;52.15;100802.00;320965;111;2669873;-72
2021/03/30 04:00:13;;;;;;;24.13;16.06;;;;;;;7.45;51.97;100802.00;329241;111;2493974;-73
2021/03/30 04:01:24;;;;;;;29.86;17.59;;;;;;;7.47;52.11;100799.16;352425;112;1961972;-73
2021/03/30 04:02:49;;;;;;;28.48;15.44;;;;;;;7.47;51.71;100804.55;352453;111;1961988;-74
2021/03/30 04:04:02;;;;;;;27.24;17.38;;;;;;;7.47;51.65;100805.38;357812;111;1961943;-73
2021/03/30 04:05:20;;;;;;;32.09;19.54;;;;;;;7.49;51.48;100810.61;356867;111;1961892;-73
2021/03/30 04:06:30;;;;;;;28.80;17.56;;;;;;;7.48;51.15;100807.05;358029;111;1962968;-72
2021/03/30 04:07:54;;;;;;;27.73;18.99;;;;;;;7.49;51.19;100815.98;327744;111;1962962;-73
2021/03/30 04:09:02;;;;;;;30.03;19.36;;;;;;;7.49;51.01;100811.45;327273;111;2522991;-72
2021/03/30 04:10:10;;;;;;;26.19;17.57;;;;;;;7.50;51.00;100812.28;358740;111;1961987;-73
2021/03/30 04:11:16;;;;;;;32.74;19.79;;;;;;;7.49;51.12;100808.77;360352;111;1961947;-72
2021/03/30 04:12:25;;;;;;;29.13;17.56;;;;;;;7.49;51.16;100816.83;357349;110;1963050;-72
2021/03/30 04:13:32;;;;;;;28.44;18.14;;;;;;;7.50;51.15;100809.59;364091;111;1962972;-74
2021/03/30 04:14:38;;;;;;;31.53;19.06;;;;;;;7.52;50.93;100806.77;359577;112;1961990;-73
2021/03/30 04:15:44;;;;;;;26.67;17.29;;;;;;;7.53;50.72;100811.13;331460;111;2506916;-72
2021/03/30 04:16:50;;;;;;;28.43;16.50;;;;;;;7.53;50.61;100814.66;357584;111;1960797;-72
2021/03/30 04:17:55;;;;;;;26.56;16.04;;;;;;;7.57;50.16;100809.80;359564;111;1960778;-72
2021/03/30 04:19:02;;;;;;;28.21;16.86;;;;;;;7.58;49.87;100817.72;360793;111;1960683;-72
2021/03/30 04:20:14;;;;;;;27.30;17.23;;;;;;;7.57;49.77;100816.04;322462;111;2219928;-72
2021/03/30 04:21:35;;;;;;;25.62;15.98;;;;;;;7.57;49.93;100813.35;360820;111;1961329;-72
2021/03/30 04:22:45;;;;;;;23.00;14.64;;;;;;;7.60;49.85;100814.88;358045;110;1961837;-73
2021/03/30 04:23:51;;;;;;;23.76;14.82;;;;;;;7.59;49.76;100811.33;359670;111;1961958;-72
2021/03/30 04:24:57;;;;;;;26.51;14.94;;;;;;;7.61;49.51;100811.17;329694;111;1964928;-72
2021/03/30 04:26:02;;;;;;;24.43;14.37;;;;;;;7.62;49.32;100813.72;358180;112;1961947;-73
2021/03/30 04:27:09;;;;;;;23.06;12.78;;;;;;;7.62;49.50;100811.03;360562;111;1961886;-72
2021/03/30 04:28:16;;;;;;;25.41;12.66;;;;;;;7.64;49.25;100816.23;358033;111;1962966;-73
2021/03/30 04:29:22;;;;;;;21.41;13.27;;;;;;;7.64;48.86;100816.23;357684;111;1962094;-72
2021/03/30 04:30:29;;;;;;;19.56;11.93;;;;;;;7.62;49.17;100816.41;343012;115;1961994;-73
2021/03/30 04:31:35;;;;;;;20.50;13.04;;;;;;;7.64;49.03;100814.38;310450;112;2880005;-73
2021/03/30 04:32:45;;;;;;;20.44;12.44;;;;;;;7.65;48.70;100821.47;330760;111;2474931;-72
2021/03/30 04:33:51;;;;;;;26.70;13.63;;;;;;;7.65;48.75;100818.78;358546;111;1961912;-73
2021/03/30 04:34:56;;;;;;;19.12;12.46;;;;;;;7.66;48.75;100828.52;357653;111;1962050;-72
2021/03/30 04:36:03;;;;;;;21.07;13.39;;;;;;;7.68;48.73;100821.14;358197;111;1963932;-72
2021/03/30 04:37:09;;;;;;;25.97;14.56;;;;;;;7.68;48.86;100826.52;322434;111;1962897;-72
2021/03/30 04:38:14;;;;;;;22.41;13.34;;;;;;;7.69;48.82;100824.67;347359;111;1964014;-72
2021/03/30 04:39:19;;;;;;;24.26;13.79;;;;;;;7.71;48.76;100831.58;358691;113;1961939;-73
2021/03/30 04:40:26;;;;;;;24.65;14.56;;;;;;;7.71;48.73;100826.20;358675;111;1963954;-72
2021/03/30 04:41:32;;;;;;;28.70;15.57;;;;;;;7.72;48.74;100827.04;357244;111;1962036;-72
2021/03/30 04:42:39;;;;;;;25.32;14.23;;;;;;;7.73;48.81;100831.44;339737;111;2289972;-72
2021/03/30 04:43:44;;;;;;;27.83;14.58;;;;;;;7.73;48.77;100833.25;356941;111;1962049;-73
2021/03/30 04:44:49;;;;;;;23.44;14.06;;;;;;;7.73;48.83;100834.13;357511;111;1962014;-73
2021/03/30 04:45:54;;;;;;;26.53;14.92;;;;;;;7.75;48.89;100829.41;359023;111;1963993;-72
2021/03/30 04:47:00;;;;;;;25.03;14.09;;;;;;;7.76;48.68;100836.49;360269;111;1961826;-72
2021/03/30 04:48:07;;;;;;;23.34;13.39;;;;;;;7.76;48.66;100831.11;322321;111;2632916;-73
2021/03/30 04:49:13;;;;;;;22.26;13.91;;;;;;;7.77;48.57;100838.16;358274;111;1961982;-73
2021/03/30 04:50:19;;;;;;;21.04;13.60;;;;;;;7.79;48.44;100835.33;359653;111;1961947;-73
2021/03/30 04:51:25;;;;;;;26.37;13.39;;;;;;;7.80;48.17;100832.47;311035;111;2838006;-73
2021/03/30 04:52:31;;;;;;;25.79;13.85;;;;;;;7.81;47.88;100841.41;342624;111;1962072;-72
2021/03/30 04:53:36;;;;;;;26.96;14.33;;;;;;;7.78;47.83;100837.19;357241;111;1963020;-73
2021/03/30 04:54:42;;;;;;;22.65;13.16;;;;;;;7.79;48.10;100835.33;356891;111;1963001;-73
2021/03/30 04:55:47;;;;;;;22.59;13.66;;;;;;;7.78;48.16;100836.31;352370;113;1962016;-73
2021/03/30 04:56:53;;;;;;;23.13;13.60;;;;;;;7.79;48.10;100835.33;350132;113;1962027;-74
2021/03/30 04:57:59;;;;;;;22.72;13.44;;;;;;;7.82;48.19;100835.01;324796;111;2584972;-73
2021/03/30 04:59:04;;;;;;;23.96;13.80;;;;;;;7.82;47.82;100835.01;339142;111;1961909;-73
2021/03/30 05:00:18;;;;;;;23.67;13.55;;;;;;;7.82;47.44;100837.70;319567;111;2683056;-73
2021/03/30 05:01:36;;;;;;;28.24;15.39;;;;;;;7.81;47.72;100842.23;325721;111;2241812;-73
2021/03/30 05:02:44;;;;;;;21.96;14.01;;;;;;;7.82;48.08;100835.84;370864;107;1961986;-74
2021/03/30 05:03:49;;;;;;;22.38;12.68;;;;;;;7.84;47.88;100844.61;369830;107;1961958;-74
2021/03/30 05:04:54;;;;;;;22.86;12.80;;;;;;;7.68;47.88;100807.70;362684;109;1962010;-73
2021/03/30 05:06:00;;;;;;;21.59;13.63;;;;;;;7.89;47.74;100838.76;355044;114;1961957;-73
2021/03/30 05:07:06;;;;;;;22.02;12.98;;;;;;;7.89;47.45;100839.59;364251;110;1962008;-74